Camden, New Jersey
Current Conditions -  °F | °C
As of 1:54 AM on Thursday 23 Oct 2014 (Local Time) from KPHL Reporting Station
Light Rain Light Rain  
Wind Chill: 52°   Ceiling: 3000
Heat Index: 52°   Visibility: 9mi
Dew Point: 47°   Wind: 21mph
Humidity: 83%   Direction: 330°NNW
Pressure: 29.76"   Gusts: 30mph
Location:  39.95°N, 75.12°W
Report Text: KPHL 230554Z 33018G26KT 9SM -RA FEW017 BKN030 OVC040 11/08 A2976 RMK AO2 PK WND 33026/0552 SLP078 P0000 60009 T01110083 10122 20111 56014 $
Loading
Personal Weather Stations






























Interactive Weather Map
Tropical Storm Tracking
New forecast layout! Learn more

10-Day Weather Forecast

Advertisements
Track Severe Weather on mobile